Time;durP1;ratioP1;P1;durP2;ratioP2;P2;SDS_P1;SDS_P2;PMS_P1;PMS_P2;Temp;Humidity;BMP_temperature;BMP_pressure;BME280_temperature;BME280_humidity;BME280_pressure;Samples;Min_cycle;Max_cycle;Signal;HPM_P1;HPM_P2
2023/04/27 17:05:24;;;;;;;17.10;6.22;;;10.50;99.90;;;;;;5062861;27;20888;-89
2023/04/27 17:07:50;;;;;;;10.88;4.82;;;10.50;99.90;;;;;;5067362;28;20051;-89
2023/04/27 17:10:17;;;;;;;11.02;4.57;;;10.50;99.90;;;;;;5059804;28;20024;-85
2023/04/27 17:12:43;;;;;;;7.28;3.92;;;10.50;99.90;;;;;;5063111;28;20029;-84
2023/04/27 17:15:09;;;;;;;14.27;7.55;;;10.40;99.90;;;;;;5065210;28;20116;-89
2023/04/27 17:17:35;;;;;;;12.30;3.92;;;10.40;99.90;;;;;;5062767;28;20045;-86
2023/04/27 17:20:01;;;;;;;4.47;2.85;;;10.40;99.90;;;;;;5052869;28;20080;-89
2023/04/27 17:22:28;;;;;;;4.03;2.80;;;10.40;99.90;;;;;;5070679;28;20098;-89
2023/04/27 17:25:04;;;;;;;5.85;3.35;;;10.30;99.90;;;;;;5071847;28;20033;-89
2023/04/27 17:27:30;;;;;;;5.13;3.60;;;10.30;99.90;;;;;;5065363;28;20027;-90
2023/04/27 17:29:55;;;;;;;7.28;5.05;;;10.30;99.90;;;;;;5067773;28;20398;-87
2023/04/27 17:32:21;;;;;;;5.90;4.07;;;10.30;99.90;;;;;;5072930;28;20021;-90
2023/04/27 17:34:47;;;;;;;11.60;5.38;;;10.20;99.90;;;;;;5062582;28;20038;-89
2023/04/27 17:37:13;;;;;;;9.70;5.03;;;10.20;99.90;;;;;;5070950;28;20032;-86
2023/04/27 17:39:39;;;;;;;11.65;4.93;;;10.20;99.90;;;;;;5066640;28;20490;-88
2023/04/27 17:42:05;;;;;;;11.40;5.13;;;10.10;99.90;;;;;;5066950;28;20076;-89
2023/04/27 17:44:31;;;;;;;8.77;3.85;;;10.10;99.90;;;;;;5064257;28;20044;-88
2023/04/27 17:46:57;;;;;;;9.75;3.25;;;10.10;99.90;;;;;;5059979;28;20041;-87
2023/04/27 17:49:22;;;;;;;4.75;2.75;;;10.00;99.90;;;;;;5063978;28;20131;-89
2023/04/27 17:51:48;;;;;;;6.38;2.95;;;10.00;99.90;;;;;;5060743;28;20032;-88
2023/04/27 17:54:15;;;;;;;5.07;3.05;;;9.90;99.90;;;;;;5064161;28;20544;-89
2023/04/27 17:56:41;;;;;;;8.05;4.50;;;9.90;99.90;;;;;;5072301;28;20502;-86
2023/04/27 17:59:07;;;;;;;8.88;4.03;;;9.90;99.90;;;;;;5059223;28;20056;-90
2023/04/27 18:01:33;;;;;;;7.63;3.70;;;9.80;99.90;;;;;;5063502;28;20094;-90
2023/04/27 18:03:58;;;;;;;8.07;3.38;;;9.70;99.90;;;;;;5067691;28;20056;-89
2023/04/27 18:06:26;;;;;;;10.98;4.15;;;9.70;99.90;;;;;;5057764;28;20028;-89
2023/04/27 18:08:52;;;;;;;11.85;3.55;;;9.60;99.90;;;;;;5058718;28;20025;-89
2023/04/27 18:11:17;;;;;;;5.40;3.00;;;9.50;99.90;;;;;;5066024;28;20077;-89
2023/04/27 18:13:44;;;;;;;7.50;3.30;;;9.40;99.90;;;;;;5069472;28;20103;-88
2023/04/27 18:16:09;;;;;;;5.57;3.08;;;9.40;99.90;;;;;;5051325;28;20462;-90
2023/04/27 18:18:35;;;;;;;13.48;3.22;;;9.30;99.90;;;;;;5046298;28;20031;-89
2023/04/27 18:21:01;;;;;;;4.75;2.60;;;9.20;99.90;;;;;;5047917;28;20048;-90
2023/04/27 18:23:26;;;;;;;8.00;2.65;;;9.10;99.90;;;;;;5056132;28;20057;-89
2023/04/27 18:25:52;;;;;;;4.57;2.17;;;9.10;99.90;;;;;;5050319;28;20066;-89
2023/04/27 18:28:17;;;;;;;9.73;3.17;;;9.00;99.90;;;;;;5047247;28;20060;-89
2023/04/27 18:30:43;;;;;;;8.73;2.97;;;9.00;99.90;;;;;;5043791;28;20040;-89
2023/04/27 18:33:08;;;;;;;4.80;2.50;;;8.90;99.90;;;;;;5050086;28;20428;-90
2023/04/27 18:35:34;;;;;;;8.40;3.10;;;8.90;99.90;;;;;;5043949;28;20029;-88
2023/04/27 18:38:00;;;;;;;10.30;3.55;;;8.80;99.90;;;;;;5057130;28;20036;-90
2023/04/27 18:40:28;;;;;;;5.35;3.15;;;8.70;99.90;;;;;;5054972;28;20088;-86
2023/04/27 18:42:53;;;;;;;5.38;3.20;;;8.60;99.90;;;;;;5046254;28;20067;-90
2023/04/27 18:45:19;;;;;;;5.68;3.47;;;8.50;99.90;;;;;;5048619;28;20073;-91
2023/04/27 18:47:54;;;;;;;9.65;4.68;;;8.50;99.90;;;;;;5052911;28;20025;-90
2023/04/27 18:50:20;;;;;;;15.02;4.60;;;8.40;99.90;;;;;;5043762;28;20113;-90
2023/04/27 18:52:46;;;;;;;7.88;3.80;;;8.30;99.90;;;;;;5050203;28;20112;-90
2023/04/27 18:55:13;;;;;;;6.80;4.05;;;8.30;99.90;;;;;;5056869;28;20028;-91
2023/04/27 18:57:38;;;;;;;10.40;4.10;;;8.20;99.90;;;;;;5047154;28;20035;-89
2023/04/27 19:00:05;;;;;;;10.65;3.20;;;8.10;99.90;;;;;;5054390;28;20021;-89
2023/04/27 19:02:32;;;;;;;6.03;3.42;;;8.10;99.90;;;;;;5049088;28;20025;-91
2023/04/27 19:04:57;;;;;;;5.93;2.78;;;7.90;99.90;;;;;;5046700;28;20051;-90
2023/04/27 19:07:24;;;;;;;6.40;3.40;;;7.90;99.90;;;;;;5047969;28;20037;-89
2023/04/27 19:09:53;;;;;;;6.18;3.17;;;7.90;99.90;;;;;;5044707;28;20497;-91
2023/04/27 19:12:20;;;;;;;7.93;3.25;;;7.80;99.90;;;;;;5051703;28;22808;-91
2023/04/27 19:14:45;;;;;;;7.65;2.97;;;7.80;99.90;;;;;;5052260;28;20497;-90
2023/04/27 19:17:11;;;;;;;6.05;2.92;;;7.70;99.90;;;;;;5045613;28;20035;-89
2023/04/27 19:19:37;;;;;;;9.32;3.47;;;7.60;99.90;;;;;;5051267;28;20020;-92
2023/04/27 19:22:04;;;;;;;11.77;3.83;;;7.60;99.90;;;;;;5044723;28;20024;-89
2023/04/27 19:24:29;;;;;;;13.30;3.78;;;7.60;99.90;;;;;;5053260;28;20213;-92
2023/04/27 19:26:55;;;;;;;10.10;3.70;;;7.50;99.90;;;;;;5054285;28;20488;-91
2023/04/27 19:29:25;;;;;;;21.27;3.80;;;7.40;99.90;;;;;;5046708;28;20055;-90
2023/04/27 19:31:53;;;;;;;14.82;4.13;;;7.30;99.90;;;;;;5045275;28;20033;-85
2023/04/27 19:34:18;;;;;;;6.85;4.38;;;7.40;99.90;;;;;;5045880;28;20504;-91
2023/04/27 19:36:45;;;;;;;12.32;3.38;;;7.30;99.90;;;;;;5049821;28;20036;-90
2023/04/27 19:39:12;;;;;;;18.52;4.38;;;7.30;99.90;;;;;;5038632;28;20037;-91
2023/04/27 19:41:38;;;;;;;14.90;4.10;;;7.20;99.90;;;;;;5048057;28;20021;-90
2023/04/27 19:44:04;;;;;;;10.93;4.68;;;7.20;99.90;;;;;;5055421;28;20469;-90
2023/04/27 19:46:31;;;;;;;7.85;3.53;;;7.20;99.90;;;;;;5055170;28;20021;-88
2023/04/27 19:48:57;;;;;;;5.80;3.55;;;7.10;99.90;;;;;;5048497;28;20085;-89
2023/04/27 19:51:22;;;;;;;7.05;4.20;;;7.10;99.90;;;;;;5048939;28;20059;-89
2023/04/27 19:53:48;;;;;;;8.70;3.72;;;7.00;99.90;;;;;;5044570;28;20044;-88
2023/04/27 19:56:14;;;;;;;7.65;4.00;;;7.00;99.90;;;;;;5052357;28;20378;-91
2023/04/27 19:58:40;;;;;;;6.22;3.10;;;6.90;99.90;;;;;;5047808;28;20027;-91
2023/04/27 20:01:05;;;;;;;7.50;3.20;;;6.90;99.90;;;;;;5056361;28;20027;-91
2023/04/27 20:03:31;;;;;;;11.35;3.90;;;6.80;99.90;;;;;;5052312;28;20083;-90
2023/04/27 20:05:57;;;;;;;5.07;3.45;;;6.80;99.90;;;;;;5050736;28;20407;-90
2023/04/27 20:08:22;;;;;;;9.07;3.63;;;6.80;99.90;;;;;;5051132;28;20021;-91
2023/04/27 20:10:48;;;;;;;6.22;3.22;;;6.70;99.90;;;;;;5052308;28;20025;-91
2023/04/27 20:13:13;;;;;;;9.77;3.15;;;6.80;99.90;;;;;;5045635;28;20032;-90
2023/04/27 20:15:39;;;;;;;5.65;3.63;;;6.70;99.90;;;;;;5045037;28;20029;-92
2023/04/27 20:18:05;;;;;;;6.10;3.35;;;6.70;99.90;;;;;;5050702;28;20119;-91
2023/04/27 20:20:30;;;;;;;7.45;4.55;;;6.70;99.90;;;;;;5053059;28;20032;-92
2023/04/27 20:22:56;;;;;;;5.70;3.78;;;6.70;99.90;;;;;;5050483;28;20040;-88
2023/04/27 20:25:24;;;;;;;9.05;4.47;;;6.60;99.90;;;;;;5047301;28;20486;-91
2023/04/27 20:27:51;;;;;;;7.43;3.85;;;6.60;99.90;;;;;;5047205;28;20024;-91
2023/04/27 20:30:17;;;;;;;11.20;5.22;;;6.60;99.90;;;;;;5052150;28;20078;-91
2023/04/27 20:32:43;;;;;;;5.50;4.28;;;6.60;99.90;;;;;;5047467;28;20083;-90
2023/04/27 20:35:10;;;;;;;9.85;5.10;;;6.50;99.90;;;;;;5050966;28;20024;-90
2023/04/27 20:37:36;;;;;;;13.15;6.85;;;6.50;99.90;;;;;;5046029;28;20085;-91
2023/04/27 20:40:04;;;;;;;12.13;6.30;;;6.40;99.90;;;;;;5046557;28;20031;-90
2023/04/27 20:42:30;;;;;;;10.13;5.40;;;6.40;99.90;;;;;;5051603;28;20025;-91
2023/04/27 20:44:55;;;;;;;11.30;5.50;;;6.40;99.90;;;;;;5048666;28;20043;-92
2023/04/27 20:47:21;;;;;;;13.68;5.03;;;6.40;99.90;;;;;;5049680;28;20477;-93
2023/04/27 20:49:46;;;;;;;7.45;4.30;;;6.40;99.90;;;;;;5047012;28;20048;-91
2023/04/27 20:52:12;;;;;;;5.15;3.40;;;6.40;99.90;;;;;;5047629;28;20381;-92
2023/04/27 20:54:38;;;;;;;6.43;4.38;;;6.40;99.90;;;;;;5044687;28;20390;-92
2023/04/27 20:57:09;;;;;;;9.73;3.40;;;6.40;99.90;;;;;;5046437;28;20032;-91
2023/04/27 20:59:35;;;;;;;14.20;5.07;;;6.50;99.90;;;;;;5056974;28;20425;-92
2023/04/27 21:02:00;;;;;;;11.65;5.38;;;6.60;99.90;;;;;;5053981;28;20025;-94
2023/04/27 21:04:26;;;;;;;10.55;3.78;;;6.60;99.90;;;;;;5045565;28;20075;-89
2023/04/27 21:06:52;;;;;;;6.00;3.63;;;6.60;99.90;;;;;;5043672;28;20079;-85
2023/04/27 21:09:18;;;;;;;10.43;3.80;;;6.70;99.90;;;;;;5041854;28;20033;-95
2023/04/27 21:11:46;;;;;;;6.70;3.25;;;6.80;99.90;;;;;;5048893;28;20047;-91
2023/04/27 21:14:12;;;;;;;8.45;3.78;;;6.90;99.90;;;;;;5043976;28;20033;-91
2023/04/27 21:16:37;;;;;;;9.13;4.03;;;6.90;99.90;;;;;;5044217;28;20320;-90
2023/04/27 21:19:04;;;;;;;7.95;3.42;;;7.00;99.90;;;;;;5043906;28;20024;-92
2023/04/27 21:21:29;;;;;;;8.43;3.30;;;7.00;99.90;;;;;;5040748;28;20022;-91
2023/04/27 21:23:58;;;;;;;5.53;3.17;;;7.10;99.90;;;;;;5047409;28;20128;-90
2023/04/27 21:26:23;;;;;;;9.10;3.35;;;7.10;99.90;;;;;;5049780;28;20025;-87
2023/04/27 21:28:49;;;;;;;11.45;4.57;;;7.10;99.90;;;;;;5052598;28;20389;-92
2023/04/27 21:31:15;;;;;;;11.00;3.67;;;7.10;99.90;;;;;;5045943;28;20504;-90
2023/04/27 21:33:42;;;;;;;7.45;3.42;;;7.20;99.90;;;;;;5053402;28;20037;-89
2023/04/27 21:36:07;;;;;;;5.70;3.22;;;7.20;99.90;;;;;;5048998;28;20029;-90
2023/04/27 21:38:33;;;;;;;8.27;4.10;;;7.20;99.90;;;;;;5045629;28;20290;-91
2023/04/27 21:40:58;;;;;;;5.43;3.28;;;7.20;99.90;;;;;;5051067;28;20146;-91
2023/04/27 21:43:24;;;;;;;8.73;3.85;;;7.20;99.90;;;;;;5053172;28;20040;-90
2023/04/27 21:45:50;;;;;;;7.82;2.83;;;7.20;99.90;;;;;;5042289;28;20036;-90
2023/04/27 21:48:16;;;;;;;11.75;4.38;;;7.20;99.90;;;;;;5051409;28;20028;-89
2023/04/27 21:50:41;;;;;;;6.13;3.10;;;7.20;99.90;;;;;;5049823;28;20536;-91
2023/04/27 21:53:08;;;;;;;8.30;3.67;;;7.10;99.90;;;;;;5051058;28;20150;-92
2023/04/27 21:55:33;;;;;;;8.20;4.50;;;7.10;99.90;;;;;;5050204;28;20025;-90
2023/04/27 21:57:59;;;;;;;5.10;3.47;;;7.10;99.90;;;;;;5050065;28;20040;-89
2023/04/27 22:00:26;;;;;;;8.85;3.75;;;7.10;99.90;;;;;;5055651;28;20460;-88
2023/04/27 22:02:52;;;;;;;9.50;4.00;;;7.10;99.90;;;;;;5053413;28;20056;-90
2023/04/27 22:05:19;;;;;;;8.10;3.55;;;7.20;99.90;;;;;;5058075;28;20567;-89
2023/04/27 22:07:46;;;;;;;9.75;3.90;;;7.20;99.90;;;;;;5047843;28;20055;-91
2023/04/27 22:10:12;;;;;;;5.90;2.80;;;7.10;99.90;;;;;;5044167;28;20095;-86
2023/04/27 22:12:38;;;;;;;3.78;3.00;;;7.10;99.90;;;;;;5049675;28;20110;-90
2023/04/27 22:15:04;;;;;;;10.02;3.95;;;7.10;99.90;;;;;;5056023;28;20061;-93
2023/04/27 22:17:30;;;;;;;6.45;3.35;;;7.10;99.90;;;;;;5052715;28;20082;-92
2023/04/27 22:19:55;;;;;;;7.55;4.10;;;7.10;99.90;;;;;;5055062;28;20029;-89
2023/04/27 22:22:22;;;;;;;10.38;3.97;;;7.10;99.90;;;;;;5047579;28;20025;-85
2023/04/27 22:24:48;;;;;;;6.28;4.28;;;7.20;99.90;;;;;;5058382;28;20041;-93
2023/04/27 22:27:13;;;;;;;6.70;2.97;;;7.20;99.90;;;;;;5055124;28;20056;-89
2023/04/27 22:29:39;;;;;;;10.25;4.20;;;7.20;99.90;;;;;;5055946;28;20025;-90
2023/04/27 22:32:05;;;;;;;6.68;3.90;;;7.20;99.90;;;;;;5048520;28;20025;-91
2023/04/27 22:34:32;;;;;;;9.65;3.67;;;7.20;99.90;;;;;;5057661;28;20547;-90
2023/04/27 22:36:58;;;;;;;10.18;4.15;;;7.20;99.90;;;;;;5046050;28;20035;-88
2023/04/27 22:39:24;;;;;;;9.15;3.85;;;7.20;99.90;;;;;;5049091;28;20477;-91
2023/04/27 22:41:50;;;;;;;9.57;3.83;;;7.20;99.90;;;;;;5051988;28;20021;-92
2023/04/27 22:44:16;;;;;;;7.63;4.28;;;7.20;99.90;;;;;;5045168;28;20370;-90
2023/04/27 22:46:42;;;;;;;11.63;4.32;;;7.20;99.90;;;;;;5046555;28;20040;-87
2023/04/27 22:49:08;;;;;;;9.45;3.85;;;7.20;99.90;;;;;;5058299;28;20100;-89
2023/04/27 22:51:35;;;;;;;10.23;3.50;;;7.20;99.90;;;;;;5049920;28;20021;-92
2023/04/27 22:54:01;;;;;;;13.90;3.92;;;7.20;99.90;;;;;;5041192;28;20025;-92
2023/04/27 22:56:26;;;;;;;8.13;4.35;;;7.20;99.90;;;;;;5057998;28;20031;-91
2023/04/27 22:58:52;;;;;;;12.68;3.55;;;7.20;99.90;;;;;;5056322;28;20136;-86
2023/04/27 23:01:17;;;;;;;10.15;3.72;;;7.20;99.90;;;;;;5057407;28;20025;-91
2023/04/27 23:03:43;;;;;;;9.95;3.90;;;7.20;99.90;;;;;;5049718;28;20410;-87
2023/04/27 23:06:13;;;;;;;12.40;4.55;;;7.20;99.90;;;;;;5066136;28;20044;-89
2023/04/27 23:08:40;;;;;;;6.93;4.00;;;7.20;99.90;;;;;;5049797;28;20056;-88
2023/04/27 23:11:07;;;;;;;7.28;3.42;;;7.20;99.90;;;;;;5058703;28;20052;-90
2023/04/27 23:13:33;;;;;;;8.07;4.00;;;7.30;99.90;;;;;;5055537;28;20537;-89
2023/04/27 23:15:58;;;;;;;10.27;4.07;;;7.20;99.90;;;;;;5037170;28;20116;-92
2023/04/27 23:18:24;;;;;;;7.43;4.05;;;7.20;99.90;;;;;;5051569;28;20123;-85
2023/04/27 23:20:56;;;;;;;5.72;3.65;;;7.20;99.90;;;;;;5055742;28;20563;-89
2023/04/27 23:23:22;;;;;;;18.52;4.57;;;7.20;99.90;;;;;;5053100;28;20032;-91
2023/04/27 23:25:48;;;;;;;7.72;3.75;;;7.20;99.90;;;;;;5045397;28;20055;-88
2023/04/27 23:28:14;;;;;;;12.07;4.47;;;7.20;99.90;;;;;;5053851;28;20078;-90
2023/04/27 23:30:39;;;;;;;9.90;4.00;;;7.20;99.90;;;;;;5052589;28;20037;-91
2023/04/27 23:33:05;;;;;;;13.65;3.90;;;7.20;99.90;;;;;;5048025;28;20021;-88
2023/04/27 23:35:34;;;;;;;7.82;3.60;;;7.20;99.90;;;;;;5054183;28;20024;-85
2023/04/27 23:37:59;;;;;;;9.13;4.43;;;7.10;99.90;;;;;;5046032;28;20317;-90
2023/04/27 23:40:28;;;;;;;5.45;3.42;;;7.10;99.90;;;;;;5045179;28;20474;-87
2023/04/27 23:42:54;;;;;;;12.60;4.22;;;7.20;99.90;;;;;;5052726;28;20025;-92
2023/04/27 23:45:20;;;;;;;12.10;4.20;;;7.10;99.90;;;;;;5054147;28;20410;-91
2023/04/27 23:47:45;;;;;;;10.55;4.13;;;7.20;99.90;;;;;;5048043;28;20082;-88
2023/04/27 23:50:11;;;;;;;12.55;4.78;;;7.10;99.90;;;;;;5050890;28;20025;-89
2023/04/27 23:52:36;;;;;;;8.00;3.80;;;7.10;99.90;;;;;;5047966;28;20032;-88
2023/04/27 23:55:02;;;;;;;9.05;3.92;;;7.10;99.90;;;;;;5062886;28;20059;-89
2023/04/27 23:57:28;;;;;;;8.82;4.38;;;7.10;99.90;;;;;;5053666;28;20025;-87
2023/04/27 23:59:53;;;;;;;8.60;3.50;;;7.10;99.90;;;;;;5053971;28;20031;-89
